Station info - map view · info · telemetry · weather · raw · status · beacons · messages · bulletins · browse · moving · my account
Callsign, ship name or locator: Clear       
It is possible to search using wildcards (*?) after a prefix. Example: OH*
APRS station KF7EFI-9 - show graphs
Map loading...
Comment: )A=003238
Location: 32°45.16' N 117°07.23' W - locator DM12KS50MP - show map - static map
3.3 miles Northeast bearing 40° from San Diego, San Diego County, California, United States [?]
11.1 miles Southeast bearing 126° from La Jolla, San Diego County, California, United States
18.5 miles North bearing 339° from Tijuana, Baja California, Mexico
Last position: 2021-04-04 20:40:30 EDT (12d 6h53m ago)
2021-04-04 17:40:30 PDT local time at San Diego, United States [?]
Altitude: 247 ft
Course: 292°
Speed: 2 MPH
Device: Open Source: APRSdroid (app, Android)
Last path: KF7EFI-9>APDR16 via WIDE1-1,WIDE2-2,qAR,KD6DCN-5 (good)
Positions stored: 8234
Other SSIDs: KF7EFI KF7EFI-12 KF7EFI-6 KF7EFI-8
Stations near current position of KF7EFI-9 - show more
callsign distance last heard - EDT      callsign distance last heard - EDT
N9DLX0.4 miles 69°2021-04-17 03:25:38 KN6LZH-90.7 miles 116°2021-04-14 20:34:07
N6ATF0.9 miles 69°2021-04-17 03:29:53 FW74851.1 miles 109°2021-04-17 03:31:01
DW43311.1 miles 248°2021-04-17 03:30:15 AJ6JA1.4 miles 281°2021-03-31 10:11:38
EW34751.6 miles 143°2021-04-17 03:31:21 DW36401.7 miles 25°2021-04-17 03:30:12
FW53161.9 miles 136°2021-04-17 03:30:16 EW98732.0 miles 285°2021-04-17 03:32:45
EW83602.3 miles 284°2021-04-17 03:31:56 KR6AUL-N2.7 miles 198°2021-04-16 19:06:11
KR6AUL-92.7 miles 198°2021-04-15 22:43:53 KR6AUL B2.7 miles 198°2021-04-16 19:16:32
KR6AUL-B2.7 miles 198°2021-04-16 19:16:42 KD6IFG-102.8 miles 324°2021-04-16 14:10:36
FW11282.9 miles 314°2021-04-17 03:25:19 KC6N B3.4 miles 223°2021-04-17 03:13:11
KC6N-B3.4 miles 223°2021-04-17 03:13:21 KC6N-N3.4 miles 223°2021-04-16 19:45:51
Stations which heard KF7EFI-9 directly on radio –
callsign pkts first heard - EDT last heard longest (tx => rx) longest at - EDT
KC6YRU 8 2021-04-02 14:35:46 2021-04-04 14:21:08 DM05PM > DM06HH 64.4 miles 327° 2021-04-02 15:17:46
W6BXN-3 4 2021-04-02 20:13:25 2021-04-04 13:41:03 DM05QQ > CM97XM 151.5 miles 328° 2021-04-04 13:41:03
K6IXA-3 26 2021-04-02 13:17:37 2021-04-04 17:33:49 DM04NT > DM06NR 132.4 miles 1° 2021-04-04 17:33:49
W6SCE-10 17 2021-04-02 11:39:25 2021-04-04 18:38:43 DM04NU > DM04QH 39.7 miles 157° 2021-04-04 17:30:11
N6EX-1 27 2021-04-02 10:13:39 2021-04-04 19:37:27 DM13FJ > DM04XE 62.1 miles 334° 2021-04-02 10:13:39
N6EX-4 15 2021-04-02 10:13:38 2021-04-04 20:07:32 DM04UD > DM13ET 44.9 miles 123° 2021-04-02 11:50:29
W6HRO 5 2021-04-02 11:10:55 2021-04-04 19:18:49 DM03XV > DM13AU 5.5 miles 118° 2021-04-04 19:12:26
WA6LDQ-3 3 2021-04-02 14:27:00 2021-04-02 15:24:02 DM05PN > DM05RD 27.7 miles 167° 2021-04-02 15:24:02
K6ERN 1 2021-04-02 10:59:11 2021-04-02 10:59:11 DM13DP > DM04HI 102.8 miles 298° 2021-04-02 10:59:11
WA6ZSN 2 2021-04-04 18:06:22 2021-04-04 18:16:34 DM04QK > DM04LH 25.9 miles 255° 2021-04-04 18:16:34
KELLER 1 2021-04-04 18:57:13 2021-04-04 18:57:13 DM04VA > DM14LE 66.4 miles 79° 2021-04-04 18:57:13
KA6IYS 50 2021-04-02 16:06:50 2021-04-04 15:37:16 DM05QR > DM05UP 20.2 miles 105° 2021-04-02 17:42:12
KJ6HUP 13 2021-04-02 16:32:04 2021-04-04 14:20:05 DM05RQ > DM06ES 94.7 miles 322° 2021-04-04 14:20:05
KA6DAC-1 2 2021-04-02 09:30:38 2021-04-04 20:34:29 DM12KT > DM12MT 12.3 miles 80° 2021-04-04 20:34:29
KD6DCN-5 3 2021-04-02 09:34:42 2021-04-04 20:40:30 DM12KT > DM12MS 9.6 miles 104° 2021-04-02 09:34:42
XE2SI-10 1 2021-04-04 20:38:10 2021-04-04 20:38:10 DM12KS > DM12NL 23.5 miles 146° 2021-04-04 20:38:10
WB9COY-1 2 2021-04-02 09:48:19 2021-04-02 10:05:31 DM13GG > DM12IW 25.2 miles 155° 2021-04-02 10:05:31
K6MRC-1 1 2021-04-02 09:30:38 2021-04-02 09:30:38 DM12KS > DM12GU 21.9 miles 286° 2021-04-02 09:30:38
N6SUN-10 1 2021-04-02 09:47:19 2021-04-02 09:47:19 DM13IA > DM13KB 10.7 miles 65° 2021-04-02 09:47:19
KF6NMZ-4 6 2021-04-02 11:57:34 2021-04-04 18:27:18 DM04QK > DM04SG 16.6 miles 146° 2021-04-04 18:14:30
N6ROR-10 2 2021-04-02 10:02:32 2021-04-04 20:33:12 DM13HF > DM13QB 47.6 miles 103° 2021-04-02 10:02:32
WB9VXY-5 4 2021-04-04 13:27:46 2021-04-04 14:28:05 DM05RQ > CM95PJ 121.8 miles 261° 2021-04-04 14:28:05
N6LXX-10 28 2021-04-02 11:16:26 2021-04-04 19:09:26 DM04NT > DM04UJ 43.4 miles 133° 2021-04-04 17:46:26
N6LXX-4 9 2021-04-02 10:38:41 2021-04-04 19:34:20 DM13EL > DM14DI 61.3 miles 358° 2021-04-02 10:38:41
AVALN 7 2021-04-02 10:23:54 2021-04-04 19:49:31 DM13EK > DM03UI 41.2 miles 261° 2021-04-04 19:49:31
N6VYT-7 49 2021-04-02 13:14:38 2021-04-04 17:06:53 DM04MV > DM05RU 67.5 miles 17° 2021-04-02 13:14:38
SHAVER 17 2021-04-02 15:29:00 2021-04-04 17:21:53 DM04MX > DM07IC 149.4 miles 352° 2021-04-04 17:21:53
N6VYT-6 2 2021-04-02 18:05:46 2021-04-02 21:13:24 DM05QQ > DM06JM 65.9 miles 329° 2021-04-02 21:13:24
KM6UTN-2 12 2021-04-02 12:48:58 2021-04-04 17:46:22 DM05OL > DM04LU 46.3 miles 195° 2021-04-02 14:08:44
AC6EE-3 8 2021-04-02 13:49:09 2021-04-04 14:34:16 DM05RR > DM05SB 47.6 miles 175° 2021-04-02 17:11:23
W3SN-10 5 2021-04-02 09:46:20 2021-04-04 20:33:11 DM12KT > DM13IJ 41.6 miles 351° 2021-04-04 20:33:11
N6YCE-10 2 2021-04-04 11:03:12 2021-04-04 13:25:22 DM05QQ > DM06CH 78.9 miles 303° 2021-04-04 11:03:12

Only position packets which were originated by the station are shown here. The range statistics show some extra long hops, because some digipeaters do not correctly add themselves to the digipeater path. Please check the raw packets.
About this site
This page shows real-time information collected from the Automatic Position Reporting System Internet network (APRS-IS). APRS is used by amateur (ham) radio operators to transmit real-time position information, weather data, telemetry and messages over the radio. A vehicle equipped with a GPS receiver, a VHF transmitter or HF transceiver and a small computer device called a tracker transmits it's location, speed and course in a small data packet, which is then received by a nearby iGate receiving site which forwards the packet on the Internet. Systems connected to the Internet can send information on the APRS-IS without a radio transmitter, or collect and display information transmitted anywhere in the world.
User guide · FAQ · Blog · Discussion group · Linking to aprs.fi · AIS sites · Service status · Database statistics · Advertising on aprs.fi · Technical details · API · Change log · Planned changes · Credits and thanks · Terms Of Service · iPhone/iPad APRS